createdAt,value
2023-01-15T00:00:13.958Z,11.60
2023-01-15T00:01:31.397Z,11.53
2023-01-15T00:02:36.855Z,11.44
2023-01-15T00:03:40.246Z,11.46
2023-01-15T00:04:44.808Z,11.62
2023-01-15T00:05:50.624Z,11.75
2023-01-15T00:06:54.906Z,11.67
2023-01-15T00:07:57.290Z,11.46
2023-01-15T00:09:01.595Z,11.82
2023-01-15T00:10:06.252Z,11.70
2023-01-15T00:11:08.159Z,11.40
2023-01-15T00:12:12.411Z,11.46
2023-01-15T00:13:15.932Z,11.12
2023-01-15T00:14:21.866Z,11.17
2023-01-15T00:15:25.036Z,11.33
2023-01-15T00:16:28.645Z,11.45
2023-01-15T00:17:31.977Z,11.56
2023-01-15T00:18:36.525Z,11.45
2023-01-15T00:19:39.717Z,11.66
2023-01-15T00:20:43.760Z,11.49
2023-01-15T00:21:47.229Z,11.56
2023-01-15T00:22:49.452Z,11.44
2023-01-15T00:24:12.207Z,11.29
2023-01-15T00:25:34.895Z,11.52
2023-01-15T00:26:59.172Z,11.54
2023-01-15T00:28:01.920Z,11.49
2023-01-15T00:29:04.042Z,11.51
2023-01-15T00:30:08.556Z,11.68
2023-01-15T00:31:16.340Z,11.60
2023-01-15T00:32:20.405Z,11.42
2023-01-15T00:33:22.809Z,11.34
2023-01-15T00:34:25.601Z,11.18
2023-01-15T00:35:28.178Z,11.04
2023-01-15T00:36:32.306Z,11.16
2023-01-15T00:37:35.100Z,11.16
2023-01-15T00:38:39.367Z,11.14
2023-01-15T00:39:43.362Z,11.05
2023-01-15T00:40:49.550Z,10.98
2023-01-15T00:41:52.666Z,10.72
2023-01-15T00:42:56.303Z,10.78
2023-01-15T00:43:59.809Z,10.73
2023-01-15T00:45:08.613Z,10.83
2023-01-15T00:46:13.739Z,10.76
2023-01-15T00:47:16.779Z,11.17
2023-01-15T00:48:19.836Z,11.21
2023-01-15T00:49:27.088Z,11.30
2023-01-15T00:50:30.049Z,11.46
2023-01-15T00:51:35.619Z,11.62
2023-01-15T00:52:37.883Z,11.40
2023-01-15T00:53:39.623Z,11.60
2023-01-15T00:54:42.629Z,11.66
2023-01-15T00:55:45.486Z,11.62
2023-01-15T00:56:48.307Z,11.48
2023-01-15T00:57:50.337Z,11.50
2023-01-15T00:58:52.674Z,11.66
2023-01-15T00:59:56.612Z,11.51
2023-01-15T01:01:01.441Z,11.59
2023-01-15T01:02:03.706Z,11.52
2023-01-15T01:03:08.801Z,11.55
2023-01-15T01:04:10.764Z,11.55
2023-01-15T01:05:13.182Z,11.57
2023-01-15T01:06:17.240Z,11.66
2023-01-15T01:07:19.431Z,11.59
2023-01-15T01:08:21.817Z,11.53
2023-01-15T01:09:23.593Z,11.38
2023-01-15T01:10:27.787Z,11.60
2023-01-15T01:11:37.732Z,11.70
2023-01-15T01:12:39.934Z,11.60
2023-01-15T01:13:42.420Z,11.52
2023-01-15T01:14:45.113Z,11.40
2023-01-15T01:15:47.345Z,11.26
2023-01-15T01:16:56.982Z,11.21
2023-01-15T01:18:02.700Z,11.09
2023-01-15T01:19:09.507Z,10.98
2023-01-15T01:20:15.160Z,11.12
2023-01-15T01:21:21.185Z,11.35
2023-01-15T01:22:23.604Z,11.29
2023-01-15T01:23:27.053Z,10.94
2023-01-15T01:24:30.075Z,10.89
2023-01-15T01:25:35.776Z,11.01
2023-01-15T01:26:44.681Z,11.37
2023-01-15T01:27:48.050Z,11.49
2023-01-15T01:28:52.746Z,11.37
2023-01-15T01:29:55.247Z,11.41
2023-01-15T01:31:01.007Z,11.13
2023-01-15T01:32:03.784Z,11.27
2023-01-15T01:33:08.231Z,11.37
2023-01-15T01:34:13.064Z,11.41
2023-01-15T01:35:15.304Z,11.32
2023-01-15T01:36:18.080Z,11.52
2023-01-15T01:37:22.564Z,11.42
2023-01-15T01:38:24.809Z,11.61
2023-01-15T01:39:27.926Z,11.32
2023-01-15T01:40:29.644Z,11.37
2023-01-15T01:41:31.823Z,11.39
2023-01-15T01:42:37.370Z,11.15
2023-01-15T01:44:03.616Z,11.47
2023-01-15T01:45:21.938Z,11.42
2023-01-15T01:46:26.628Z,11.51
2023-01-15T01:47:33.083Z,11.44
2023-01-15T01:48:36.906Z,11.44
2023-01-15T01:49:41.547Z,11.58
2023-01-15T01:50:47.050Z,11.61
2023-01-15T01:52:06.619Z,11.55
2023-01-15T01:53:13.736Z,11.58
2023-01-15T01:54:23.557Z,11.61
2023-01-15T01:55:29.117Z,11.81
2023-01-15T01:56:36.279Z,11.75
2023-01-15T01:57:41.299Z,11.79
2023-01-15T01:58:51.853Z,11.82
2023-01-15T01:59:54.489Z,11.72
2023-01-15T02:01:00.412Z,11.75
2023-01-15T02:02:03.181Z,11.89
2023-01-15T02:03:09.541Z,11.90
2023-01-15T02:04:12.155Z,11.72
2023-01-15T02:05:21.150Z,11.58
2023-01-15T02:06:30.051Z,11.73
2023-01-15T02:07:33.600Z,11.77
2023-01-15T02:08:39.560Z,11.73
2023-01-15T02:09:44.028Z,11.60
2023-01-15T02:10:52.401Z,11.60
2023-01-15T02:12:02.838Z,11.43
2023-01-15T02:13:12.258Z,11.53
2023-01-15T02:14:42.863Z,11.45
2023-01-15T02:15:48.847Z,11.35
2023-01-15T02:17:07.240Z,11.37
2023-01-15T02:18:17.980Z,11.26
2023-01-15T02:19:31.023Z,11.46
2023-01-15T02:20:54.769Z,11.42
2023-01-15T02:22:19.465Z,11.32
2023-01-15T02:23:32.533Z,11.63
2023-01-15T02:25:06.122Z,11.54
2023-01-15T02:26:41.536Z,11.44
2023-01-15T02:27:49.840Z,11.33
2023-01-15T02:28:55.309Z,11.29
2023-01-15T02:30:06.736Z,11.28
2023-01-15T02:31:25.917Z,11.35
2023-01-15T02:32:46.835Z,11.18
2023-01-15T02:34:28.843Z,11.28
2023-01-15T02:35:40.461Z,11.28
2023-01-15T02:36:46.764Z,11.42
2023-01-15T02:37:53.980Z,11.54
2023-01-15T02:39:02.488Z,11.43
2023-01-15T02:40:10.069Z,11.46
2023-01-15T02:41:18.581Z,11.62
2023-01-15T02:42:24.847Z,11.67
2023-01-15T02:43:29.891Z,11.43
2023-01-15T02:44:38.085Z,11.43
2023-01-15T02:45:45.620Z,11.73
2023-01-15T02:46:50.290Z,11.71
2023-01-15T02:47:56.475Z,11.68
2023-01-15T02:48:59.330Z,11.61
2023-01-15T02:50:08.733Z,11.47
2023-01-15T02:51:17.787Z,11.41
2023-01-15T02:52:25.933Z,11.68
2023-01-15T02:53:31.396Z,11.67
2023-01-15T02:54:43.282Z,11.72
2023-01-15T02:55:50.785Z,11.70
2023-01-15T02:56:54.949Z,11.78
2023-01-15T02:58:03.341Z,11.68
2023-01-15T02:59:09.723Z,11.83
2023-01-15T03:00:15.177Z,11.71
2023-01-15T03:01:23.114Z,11.79
2023-01-15T03:02:34.508Z,11.94
2023-01-15T03:03:44.787Z,12.12
2023-01-15T03:05:08.518Z,11.99
2023-01-15T03:06:33.722Z,11.85
2023-01-15T03:07:56.583Z,11.82
2023-01-15T03:09:00.857Z,11.91
2023-01-15T03:10:06.445Z,11.92
2023-01-15T03:11:14.985Z,12.05
2023-01-15T03:13:05.193Z,12.28
2023-01-15T03:14:35.993Z,12.12
2023-01-15T03:16:25.722Z,12.07
2023-01-15T03:17:51.364Z,12.34
2023-01-15T03:19:02.994Z,12.36
2023-01-15T03:20:29.128Z,12.32
2023-01-15T03:21:44.821Z,12.24
2023-01-15T03:22:54.293Z,12.15
2023-01-15T03:23:56.991Z,12.01
2023-01-15T03:25:13.940Z,12.41
2023-01-15T03:26:17.389Z,12.17
2023-01-15T03:27:23.698Z,12.20
2023-01-15T03:28:31.318Z,12.10
2023-01-15T03:29:37.777Z,12.17
2023-01-15T03:30:42.267Z,12.27
2023-01-15T03:31:46.129Z,12.17
2023-01-15T03:32:53.577Z,12.08
2023-01-15T03:33:57.159Z,11.92
2023-01-15T03:35:00.668Z,11.94
2023-01-15T03:36:04.705Z,11.82
2023-01-15T03:37:08.865Z,11.66
2023-01-15T03:38:14.144Z,11.74
2023-01-15T03:39:19.037Z,11.76
2023-01-15T03:40:26.659Z,11.65
2023-01-15T03:41:44.337Z,11.60
2023-01-15T03:43:20.062Z,11.57
2023-01-15T03:44:33.391Z,11.71
2023-01-15T03:45:39.289Z,11.43
2023-01-15T03:47:01.625Z,11.60
2023-01-15T03:48:13.180Z,11.44
2023-01-15T03:49:24.536Z,11.55
2023-01-15T03:50:37.919Z,11.49
2023-01-15T03:51:55.455Z,11.33
2023-01-15T03:53:22.840Z,11.42
2023-01-15T03:54:37.510Z,11.49
2023-01-15T03:56:06.425Z,11.64
2023-01-15T03:57:25.107Z,11.38
2023-01-15T03:58:32.290Z,11.38
2023-01-15T03:59:44.013Z,11.22
2023-01-15T04:00:54.202Z,11.29
2023-01-15T04:02:01.203Z,11.25
2023-01-15T04:03:11.743Z,11.14
2023-01-15T04:04:15.080Z,11.11
2023-01-15T04:05:18.934Z,10.95
2023-01-15T04:06:25.605Z,10.95
2023-01-15T04:07:30.587Z,10.94
2023-01-15T04:08:40.239Z,11.14
2023-01-15T04:09:46.709Z,11.19
2023-01-15T04:10:56.672Z,11.16
2023-01-15T04:12:03.504Z,11.27
2023-01-15T04:13:07.108Z,11.35
2023-01-15T04:14:17.877Z,11.06
2023-01-15T04:15:25.780Z,11.23
2023-01-15T04:16:32.414Z,11.05
2023-01-15T04:17:35.967Z,10.83
2023-01-15T04:18:38.450Z,10.63
2023-01-15T04:19:43.221Z,10.40
2023-01-15T04:20:47.852Z,10.26
2023-01-15T04:21:52.288Z,10.03
2023-01-15T04:22:56.811Z,10.12
2023-01-15T04:23:58.668Z,10.03
2023-01-15T04:25:01.828Z,10.00
2023-01-15T04:26:07.664Z,9.86
2023-01-15T04:27:09.580Z,9.83
2023-01-15T04:28:16.497Z,9.65
2023-01-15T04:29:20.241Z,9.32
2023-01-15T04:30:23.296Z,9.12
2023-01-15T04:31:25.198Z,9.13
2023-01-15T04:32:28.221Z,9.02
2023-01-15T04:33:34.709Z,9.03
2023-01-15T04:34:36.821Z,8.79
2023-01-15T04:35:39.211Z,8.80
2023-01-15T04:36:43.249Z,8.74
2023-01-15T04:37:47.857Z,8.68
2023-01-15T04:38:51.648Z,8.66
2023-01-15T04:39:55.983Z,8.59
2023-01-15T04:41:22.315Z,8.49
2023-01-15T04:42:44.426Z,8.47
2023-01-15T04:44:05.859Z,8.39
2023-01-15T04:45:09.961Z,8.37
2023-01-15T04:46:12.383Z,8.25
2023-01-15T04:47:15.772Z,8.20
2023-01-15T04:48:18.180Z,8.21
2023-01-15T04:49:19.924Z,8.16
2023-01-15T04:50:21.870Z,8.05
2023-01-15T04:51:25.779Z,8.02
2023-01-15T04:52:28.629Z,8.15
2023-01-15T04:53:30.424Z,8.17
2023-01-15T04:54:34.226Z,8.10
2023-01-15T04:55:36.689Z,8.12
2023-01-15T04:56:42.469Z,8.06
2023-01-15T04:57:44.174Z,7.95
2023-01-15T04:58:46.837Z,7.97
2023-01-15T04:59:49.761Z,7.87
2023-01-15T05:00:51.867Z,7.73
2023-01-15T05:02:03.733Z,7.97
2023-01-15T05:03:07.322Z,7.96
2023-01-15T05:04:09.094Z,7.94
2023-01-15T05:05:11.083Z,7.78
2023-01-15T05:06:14.683Z,7.76
2023-01-15T05:07:16.554Z,7.92
2023-01-15T05:08:22.117Z,7.89
2023-01-15T05:09:24.062Z,7.86
2023-01-15T05:10:26.644Z,7.84
2023-01-15T05:11:29.421Z,7.86
2023-01-15T05:12:31.398Z,7.81
2023-01-15T05:13:38.335Z,7.61
2023-01-15T05:14:44.129Z,7.65
2023-01-15T05:15:46.859Z,7.64
2023-01-15T05:16:48.735Z,7.64
2023-01-15T05:17:53.036Z,7.68
2023-01-15T05:18:59.472Z,7.68
2023-01-15T05:21:35.136Z,7.64
2023-01-15T05:22:38.062Z,7.54
2023-01-15T05:23:39.920Z,7.57
2023-01-15T05:24:41.772Z,7.58
2023-01-15T05:25:46.683Z,7.63
2023-01-15T05:26:49.168Z,7.60
2023-01-15T05:27:50.762Z,7.53
2023-01-15T05:28:57.088Z,7.58
2023-01-15T05:29:59.553Z,7.45
2023-01-15T05:31:08.442Z,7.56
2023-01-15T05:32:11.652Z,7.51
2023-01-15T05:33:13.887Z,7.45
2023-01-15T05:34:15.899Z,7.25
2023-01-15T05:35:17.507Z,7.40
2023-01-15T05:36:26.631Z,7.39
2023-01-15T05:37:30.533Z,7.44
2023-01-15T05:38:33.109Z,7.31
2023-01-15T05:39:34.880Z,7.28
2023-01-15T05:40:39.383Z,7.33
2023-01-15T05:41:52.601Z,7.27
2023-01-15T05:42:55.226Z,7.07
2023-01-15T05:44:00.774Z,7.20
2023-01-15T05:45:05.652Z,7.05
2023-01-15T05:46:07.810Z,7.16
2023-01-15T05:47:12.019Z,6.96
2023-01-15T05:48:13.971Z,7.03
2023-01-15T05:49:21.075Z,7.08
2023-01-15T05:50:23.568Z,7.07
2023-01-15T05:51:26.855Z,7.12
2023-01-15T05:52:29.704Z,6.93
2023-01-15T05:53:36.018Z,7.05
2023-01-15T05:54:39.232Z,7.06
2023-01-15T05:55:41.452Z,7.04
2023-01-15T05:56:45.673Z,7.12
2023-01-15T05:57:49.586Z,7.02
2023-01-15T05:58:51.475Z,7.02
2023-01-15T05:59:55.160Z,7.01
2023-01-15T06:00:57.082Z,6.59
2023-01-15T06:02:01.169Z,6.96
2023-01-15T06:03:07.356Z,6.86
2023-01-15T06:04:11.893Z,6.79
2023-01-15T06:05:20.321Z,6.84
2023-01-15T06:06:22.984Z,6.70
2023-01-15T06:07:24.933Z,6.82
2023-01-15T06:08:27.637Z,6.81
2023-01-15T06:09:29.779Z,6.46
2023-01-15T06:10:31.631Z,6.78
2023-01-15T06:11:37.824Z,6.63
2023-01-15T06:12:41.014Z,6.74
2023-01-15T06:13:45.556Z,6.74
2023-01-15T06:14:47.297Z,6.51
2023-01-15T06:15:50.628Z,6.65
2023-01-15T06:16:53.780Z,6.55
2023-01-15T06:17:56.535Z,6.66
2023-01-15T06:19:04.563Z,6.66
2023-01-15T06:20:10.536Z,6.64
2023-01-15T06:21:13.819Z,6.60
2023-01-15T06:22:15.787Z,6.58
2023-01-15T06:23:18.526Z,6.54
2023-01-15T06:24:21.477Z,6.51
2023-01-15T06:25:23.842Z,6.45
2023-01-15T06:26:26.669Z,6.56
2023-01-15T06:27:32.561Z,6.50
2023-01-15T06:28:34.691Z,6.43
2023-01-15T06:29:36.434Z,6.55
2023-01-15T06:30:40.615Z,6.56
2023-01-15T06:31:43.409Z,6.53
2023-01-15T06:32:45.425Z,6.55
2023-01-15T06:33:50.503Z,6.50
2023-01-15T06:34:55.092Z,6.56
2023-01-15T06:35:56.799Z,6.43
2023-01-15T06:36:59.205Z,6.46
2023-01-15T06:38:02.157Z,6.43
2023-01-15T06:39:07.917Z,6.43
2023-01-15T06:40:11.314Z,6.33
2023-01-15T06:41:36.994Z,6.28
2023-01-15T06:43:08.970Z,6.35
2023-01-15T06:44:35.335Z,6.46
2023-01-15T06:46:01.025Z,6.44
2023-01-15T06:47:21.612Z,6.40
2023-01-15T06:48:29.807Z,6.43
2023-01-15T06:49:36.075Z,6.35
2023-01-15T06:50:41.037Z,6.39
2023-01-15T06:51:43.971Z,6.37
2023-01-15T06:52:49.118Z,6.30
2023-01-15T06:53:51.096Z,6.36
2023-01-15T06:54:55.845Z,6.35
2023-01-15T06:55:58.027Z,6.18
2023-01-15T06:57:04.036Z,6.28
2023-01-15T06:58:07.404Z,6.36
2023-01-15T06:59:12.646Z,6.34
2023-01-15T07:00:20.125Z,6.31
2023-01-15T07:01:34.648Z,6.30
2023-01-15T07:02:43.820Z,6.21
2023-01-15T07:03:50.401Z,6.29
2023-01-15T07:04:54.583Z,6.20
2023-01-15T07:05:56.317Z,6.22
2023-01-15T07:06:59.588Z,6.16
2023-01-15T07:08:03.889Z,6.27
2023-01-15T07:09:07.338Z,6.17
2023-01-15T07:10:11.991Z,6.20
2023-01-15T07:11:14.824Z,6.08
2023-01-15T07:12:20.011Z,6.14
2023-01-15T07:13:22.833Z,6.27
2023-01-15T07:14:30.002Z,6.23
2023-01-15T07:15:35.756Z,6.24
2023-01-15T07:16:37.643Z,6.09
2023-01-15T07:17:44.269Z,6.16
2023-01-15T07:18:45.852Z,6.24
2023-01-15T07:19:48.688Z,6.15
2023-01-15T07:20:55.839Z,6.05
2023-01-15T07:21:57.810Z,6.13
2023-01-15T07:23:01.092Z,6.07
2023-01-15T07:24:03.846Z,6.08
2023-01-15T07:25:12.728Z,6.10
2023-01-15T07:26:15.587Z,6.14
2023-01-15T07:27:20.469Z,6.09
2023-01-15T07:28:27.329Z,5.63
2023-01-15T07:29:31.899Z,6.11
2023-01-15T07:30:36.944Z,6.12
2023-01-15T07:31:44.724Z,5.62
2023-01-15T07:32:47.951Z,6.13
2023-01-15T07:33:49.840Z,6.01
2023-01-15T07:34:54.477Z,6.05
2023-01-15T07:35:58.950Z,6.06
2023-01-15T07:37:01.217Z,6.05
2023-01-15T07:38:04.667Z,6.00
2023-01-15T07:39:09.186Z,5.94
2023-01-15T07:40:12.472Z,6.05
2023-01-15T07:41:32.943Z,6.04
2023-01-15T07:42:54.162Z,6.03
2023-01-15T07:44:15.251Z,6.00
2023-01-15T07:45:36.681Z,5.95
2023-01-15T07:46:57.648Z,6.01
2023-01-15T07:48:18.630Z,6.00
2023-01-15T07:49:40.978Z,6.00
2023-01-15T07:50:42.948Z,5.95
2023-01-15T07:51:44.898Z,5.93
2023-01-15T07:52:47.530Z,5.88
2023-01-15T07:53:51.212Z,5.93
2023-01-15T07:54:55.831Z,5.87
2023-01-15T07:55:58.515Z,5.92
2023-01-15T07:57:00.389Z,5.81
2023-01-15T07:58:03.058Z,5.81
2023-01-15T07:59:05.638Z,5.86
2023-01-15T08:00:15.205Z,5.84
2023-01-15T08:01:21.429Z,5.78
2023-01-15T08:02:23.425Z,5.65
2023-01-15T08:03:26.754Z,5.78
2023-01-15T08:04:30.377Z,5.60
2023-01-15T08:05:32.580Z,5.77
2023-01-15T08:06:37.668Z,5.69
2023-01-15T08:07:42.445Z,5.69
2023-01-15T08:08:53.303Z,5.64
2023-01-15T08:09:55.779Z,5.64
2023-01-15T08:11:21.328Z,5.77
2023-01-15T08:12:42.766Z,5.77
2023-01-15T08:14:07.849Z,5.78
2023-01-15T08:15:13.867Z,5.80
2023-01-15T08:16:17.513Z,5.78
2023-01-15T08:17:20.387Z,5.73
2023-01-15T08:18:23.786Z,5.75
2023-01-15T08:19:26.283Z,5.77
2023-01-15T08:20:28.479Z,5.77
2023-01-15T08:21:30.337Z,5.76
2023-01-15T08:22:34.093Z,5.83
2023-01-15T08:23:37.413Z,5.80
2023-01-15T08:24:42.963Z,5.75
2023-01-15T08:25:45.851Z,5.80
2023-01-15T08:26:49.056Z,5.80
2023-01-15T08:27:52.349Z,5.77
2023-01-15T08:28:56.274Z,5.77
2023-01-15T08:29:58.947Z,5.80
2023-01-15T08:31:00.921Z,5.76
2023-01-15T08:32:05.861Z,5.81
2023-01-15T08:33:07.676Z,5.76
2023-01-15T08:34:11.261Z,5.79
2023-01-15T08:35:14.485Z,5.60
2023-01-15T08:36:19.045Z,5.79
2023-01-15T08:37:20.805Z,5.80
2023-01-15T08:38:23.274Z,5.67
2023-01-15T08:39:28.303Z,5.72
2023-01-15T08:40:30.483Z,5.73
2023-01-15T08:41:33.436Z,5.65
2023-01-15T08:42:37.010Z,5.75
2023-01-15T08:43:38.720Z,5.66
2023-01-15T08:44:42.186Z,5.52
2023-01-15T08:45:44.113Z,5.57
2023-01-15T08:46:47.905Z,5.60
2023-01-15T08:47:56.782Z,5.53
2023-01-15T08:48:59.880Z,5.58
2023-01-15T08:50:04.306Z,5.62
2023-01-15T08:51:09.044Z,5.49
2023-01-15T08:52:11.728Z,5.39
2023-01-15T08:53:13.873Z,5.45
2023-01-15T08:54:16.301Z,5.45
2023-01-15T08:55:18.427Z,5.40
2023-01-15T08:56:21.772Z,5.35
2023-01-15T08:57:24.648Z,5.36
2023-01-15T08:58:30.973Z,5.33
2023-01-15T08:59:32.737Z,5.42
2023-01-15T09:00:34.690Z,5.37
2023-01-15T09:01:37.662Z,5.19
2023-01-15T09:02:42.897Z,5.28
2023-01-15T09:03:45.520Z,5.32
2023-01-15T09:04:50.292Z,5.09
2023-01-15T09:05:54.015Z,5.34
2023-01-15T09:06:56.114Z,5.33
2023-01-15T09:08:02.544Z,5.20
2023-01-15T09:09:04.591Z,5.10
2023-01-15T09:10:09.504Z,5.04
2023-01-15T09:11:14.997Z,5.32
2023-01-15T09:12:17.004Z,5.19
2023-01-15T09:13:18.885Z,5.27
2023-01-15T09:14:57.820Z,5.21
2023-01-15T09:15:44.632Z,5.28
2023-01-15T09:16:48.754Z,5.23
2023-01-15T09:17:51.323Z,5.14
2023-01-15T09:18:57.444Z,5.21
2023-01-15T09:20:01.067Z,5.24
2023-01-15T09:21:05.490Z,5.27
2023-01-15T09:22:07.411Z,5.29
2023-01-15T09:23:15.046Z,5.33
2023-01-15T09:24:17.334Z,5.23
2023-01-15T09:25:20.346Z,5.36
2023-01-15T09:26:28.380Z,5.45
2023-01-15T09:27:36.821Z,5.47
2023-01-15T09:28:44.202Z,5.44
2023-01-15T09:29:49.518Z,5.46
2023-01-15T09:30:52.362Z,5.42
2023-01-15T09:31:54.900Z,5.51
2023-01-15T09:33:00.634Z,5.45
2023-01-15T09:34:04.027Z,5.45
2023-01-15T09:35:06.706Z,5.41
2023-01-15T09:36:16.748Z,5.51
2023-01-15T09:37:19.643Z,5.50
2023-01-15T09:38:23.085Z,5.48
2023-01-15T09:39:29.124Z,5.51
2023-01-15T09:40:49.569Z,5.61
2023-01-15T09:42:09.509Z,5.59
2023-01-15T09:43:24.631Z,5.56
2023-01-15T09:44:57.148Z,5.60
2023-01-15T09:46:15.732Z,5.57
2023-01-15T09:47:34.203Z,5.48
2023-01-15T09:48:54.641Z,5.60
2023-01-15T09:50:28.321Z,5.56
2023-01-15T09:51:41.659Z,5.57
2023-01-15T09:53:14.986Z,5.57
2023-01-15T09:54:28.875Z,5.58
2023-01-15T09:55:36.311Z,5.59
2023-01-15T09:56:40.715Z,5.26
2023-01-15T09:57:46.662Z,5.58
2023-01-15T09:58:49.697Z,5.46
2023-01-15T10:00:06.206Z,5.30
2023-01-15T10:01:17.416Z,5.55
2023-01-15T10:02:25.117Z,5.59
2023-01-15T10:03:50.455Z,5.57
2023-01-15T10:05:04.919Z,5.58
2023-01-15T10:06:23.509Z,5.57
2023-01-15T10:07:40.459Z,5.39
2023-01-15T10:08:48.641Z,5.22
2023-01-15T10:10:04.140Z,4.93
2023-01-15T10:11:22.472Z,4.40
2023-01-15T10:12:36.781Z,4.14
2023-01-15T10:13:50.786Z,4.01
2023-01-15T10:15:14.391Z,3.91
2023-01-15T10:16:25.806Z,3.90
2023-01-15T10:17:35.829Z,3.75
2023-01-15T10:18:43.762Z,3.66
2023-01-15T10:19:46.781Z,3.53
2023-01-15T10:21:08.926Z,3.58
2023-01-15T10:22:49.179Z,3.61
2023-01-15T10:24:25.329Z,3.60
2023-01-15T10:25:38.827Z,3.50
2023-01-15T10:26:58.472Z,3.62
2023-01-15T10:28:13.217Z,3.74
2023-01-15T10:29:32.407Z,3.79
2023-01-15T10:30:55.533Z,3.74
2023-01-15T10:32:28.329Z,3.87
2023-01-15T10:33:47.088Z,3.89
2023-01-15T10:35:09.334Z,3.91
2023-01-15T10:36:18.389Z,3.79
2023-01-15T10:37:48.362Z,3.87
2023-01-15T10:39:12.768Z,3.87
2023-01-15T10:40:49.197Z,3.89
2023-01-15T10:42:00.076Z,3.96
2023-01-15T10:43:17.220Z,4.05
2023-01-15T10:44:36.868Z,4.05
2023-01-15T10:45:47.453Z,3.94
2023-01-15T10:46:58.434Z,3.96
2023-01-15T10:48:11.051Z,3.93
2023-01-15T10:49:23.124Z,3.94
2023-01-15T10:50:27.703Z,3.79
2023-01-15T10:51:39.338Z,3.80
2023-01-15T10:52:45.019Z,3.53
2023-01-15T10:54:09.903Z,3.82
2023-01-15T10:57:21.545Z,3.85
2023-01-15T10:58:52.577Z,3.85
2023-01-15T11:01:22.152Z,3.58
2023-01-15T11:02:48.383Z,3.92
2023-01-15T11:03:53.229Z,3.83
2023-01-15T11:04:55.438Z,3.90
2023-01-15T11:05:57.411Z,3.97
2023-01-15T11:07:01.644Z,3.94
2023-01-15T11:08:58.234Z,3.78
2023-01-15T11:09:37.046Z,3.90
2023-01-15T11:10:41.482Z,4.00
2023-01-15T11:12:00.883Z,3.98
2023-01-15T11:13:30.983Z,4.01
2023-01-15T11:14:53.666Z,4.01
2023-01-15T11:16:14.393Z,3.69
2023-01-15T11:17:35.769Z,4.01
2023-01-15T11:19:03.168Z,4.05
2023-01-15T11:20:17.522Z,4.03
2023-01-15T11:21:24.307Z,3.86
2023-01-15T11:22:28.727Z,3.72
2023-01-15T11:23:37.725Z,4.00
2023-01-15T11:24:46.936Z,4.03
2023-01-15T11:25:50.052Z,4.05
2023-01-15T11:26:55.012Z,4.03
2023-01-15T11:28:00.111Z,4.01
2023-01-15T11:29:14.872Z,3.90
2023-01-15T11:30:32.855Z,4.04
2023-01-15T11:31:43.642Z,4.05
2023-01-15T11:32:55.389Z,3.98
2023-01-15T11:34:08.207Z,4.01
2023-01-15T11:35:18.458Z,4.02
2023-01-15T11:36:26.756Z,4.04
2023-01-15T11:37:30.601Z,3.98
2023-01-15T11:38:44.667Z,4.01
2023-01-15T11:40:00.327Z,4.00
2023-01-15T11:41:05.868Z,3.76
2023-01-15T11:42:35.059Z,4.08
2023-01-15T11:43:58.777Z,4.02
2023-01-15T11:45:20.515Z,3.98
2023-01-15T11:46:49.317Z,4.15
2023-01-15T11:48:14.446Z,4.03
2023-01-15T11:49:37.307Z,4.12
2023-01-15T11:51:13.103Z,4.08
2023-01-15T11:52:28.392Z,4.16
2023-01-15T11:53:34.588Z,4.18
2023-01-15T11:54:43.256Z,4.17
2023-01-15T11:55:53.858Z,4.08
2023-01-15T11:56:56.794Z,4.07
2023-01-15T11:57:58.760Z,4.22
2023-01-15T11:59:05.789Z,4.07
2023-01-15T12:00:22.296Z,4.25
2023-01-15T12:01:32.393Z,4.36
2023-01-15T12:02:42.472Z,4.34
2023-01-15T12:03:45.529Z,4.24
2023-01-15T12:04:55.609Z,4.07
2023-01-15T12:06:02.853Z,4.37
2023-01-15T12:07:08.886Z,4.11
2023-01-15T12:08:39.529Z,4.29
2023-01-15T12:10:00.207Z,4.42
2023-01-15T12:11:27.159Z,4.48
2023-01-15T12:12:52.345Z,4.52
2023-01-15T12:14:04.008Z,4.45
2023-01-15T12:15:42.873Z,4.48
2023-01-15T12:17:06.068Z,4.63
2023-01-15T12:18:41.853Z,4.66
2023-01-15T12:19:51.199Z,4.72
2023-01-15T12:21:13.469Z,4.59
2023-01-15T12:22:47.909Z,4.82
2023-01-15T12:24:00.897Z,4.90
2023-01-15T12:25:17.924Z,4.88
2023-01-15T12:26:34.789Z,4.88
2023-01-15T12:27:42.780Z,4.91
2023-01-15T12:29:05.777Z,4.98
2023-01-15T12:30:16.521Z,5.00
2023-01-15T12:31:24.800Z,4.88
2023-01-15T12:32:37.916Z,5.12
2023-01-15T12:33:48.770Z,5.20
2023-01-15T12:35:26.739Z,5.26
2023-01-15T12:36:31.367Z,5.28
2023-01-15T12:37:48.091Z,5.30
2023-01-15T12:39:00.625Z,5.51
2023-01-15T12:40:17.071Z,5.41
2023-01-15T12:41:53.708Z,5.65
2023-01-15T12:43:15.847Z,5.78
2023-01-15T12:45:05.057Z,6.21
2023-01-15T12:46:10.757Z,7.13
2023-01-15T12:47:18.846Z,7.47
2023-01-15T12:48:47.211Z,8.03
2023-01-15T12:50:00.283Z,8.86
2023-01-15T12:51:04.590Z,9.53
2023-01-15T12:52:14.336Z,9.61
2023-01-15T12:53:43.975Z,9.65
2023-01-15T12:54:52.957Z,10.14
2023-01-15T12:56:24.198Z,10.63
2023-01-15T12:57:37.711Z,11.41
2023-01-15T12:58:45.679Z,11.14
2023-01-15T13:00:27.486Z,10.90
2023-01-15T13:01:35.754Z,9.45
2023-01-15T13:03:02.748Z,8.44
2023-01-15T13:04:38.635Z,8.34
2023-01-15T13:05:49.885Z,8.82
2023-01-15T13:06:58.216Z,9.46
2023-01-15T13:08:30.344Z,9.35
2023-01-15T13:09:50.121Z,9.06
2023-01-15T13:10:52.347Z,8.78
2023-01-15T13:11:55.735Z,9.35
2023-01-15T13:13:11.304Z,9.25
2023-01-15T13:14:17.241Z,9.35
2023-01-15T13:15:23.387Z,9.23
2023-01-15T13:16:51.055Z,9.94
2023-01-15T13:18:03.077Z,10.88
2023-01-15T13:19:19.677Z,10.48
2023-01-15T13:20:41.423Z,10.94
2023-01-15T13:21:46.206Z,10.75
2023-01-15T13:23:13.661Z,10.83
2023-01-15T13:24:46.562Z,11.04
2023-01-15T13:26:12.855Z,10.91
2023-01-15T13:27:33.801Z,11.33
2023-01-15T13:28:59.924Z,11.15
2023-01-15T13:30:04.259Z,11.21
2023-01-15T13:31:44.771Z,10.58
2023-01-15T13:32:51.761Z,10.88
2023-01-15T13:33:57.367Z,10.82
2023-01-15T13:35:11.562Z,10.51
2023-01-15T13:36:45.621Z,9.56
2023-01-15T13:37:52.292Z,9.66
2023-01-15T13:38:57.992Z,8.65
2023-01-15T13:40:23.882Z,8.69
2023-01-15T13:41:50.804Z,9.03
2023-01-15T13:42:54.015Z,9.85
2023-01-15T13:44:01.271Z,10.12
2023-01-15T13:45:28.395Z,10.17
2023-01-15T13:46:30.286Z,10.26
2023-01-15T13:47:37.954Z,10.90
2023-01-15T13:48:46.814Z,10.10
2023-01-15T13:49:54.258Z,9.47
2023-01-15T13:50:59.683Z,9.09
2023-01-15T13:52:07.817Z,8.68
2023-01-15T13:53:37.327Z,8.67
2023-01-15T13:54:42.595Z,8.33
2023-01-15T13:55:53.071Z,8.06
2023-01-15T13:56:55.322Z,7.70
2023-01-15T13:57:58.563Z,7.47
2023-01-15T13:59:02.467Z,7.64
2023-01-15T14:00:08.789Z,7.68
2023-01-15T14:01:35.957Z,7.53
2023-01-15T14:02:41.156Z,7.56
2023-01-15T14:03:55.721Z,7.59
2023-01-15T14:04:58.676Z,7.56
2023-01-15T14:06:06.232Z,7.54
2023-01-15T14:07:35.224Z,7.50
2023-01-15T14:08:46.323Z,7.22
2023-01-15T14:09:49.475Z,6.74
2023-01-15T14:10:54.588Z,7.06
2023-01-15T14:12:14.551Z,7.12
2023-01-15T14:13:45.930Z,7.11
2023-01-15T14:15:19.520Z,6.81
2023-01-15T14:16:41.495Z,6.65
2023-01-15T14:18:01.756Z,6.81
2023-01-15T14:19:28.123Z,6.88
2023-01-15T14:20:50.912Z,6.93
2023-01-15T14:22:11.362Z,6.92
2023-01-15T14:23:42.196Z,6.87
2023-01-15T14:25:04.217Z,6.73
2023-01-15T14:26:22.263Z,6.69
2023-01-15T14:27:39.650Z,6.66
2023-01-15T14:28:47.618Z,6.72
2023-01-15T14:30:11.624Z,6.77
2023-01-15T14:31:32.541Z,6.85
2023-01-15T14:33:12.979Z,7.00
2023-01-15T14:34:25.601Z,6.95
2023-01-15T14:35:29.346Z,7.15
2023-01-15T14:36:40.798Z,7.15
2023-01-15T14:37:56.877Z,7.20
2023-01-15T14:39:02.789Z,7.16
2023-01-15T14:40:07.168Z,7.02
2023-01-15T14:41:09.874Z,6.81
2023-01-15T14:42:45.190Z,7.18
2023-01-15T14:43:50.922Z,7.22
2023-01-15T14:45:04.351Z,7.12
2023-01-15T14:46:30.053Z,7.05
2023-01-15T14:47:47.969Z,7.09
2023-01-15T14:48:50.022Z,6.99
2023-01-15T14:50:05.053Z,6.97
2023-01-15T14:51:19.988Z,7.03
2023-01-15T14:52:26.386Z,7.07
2023-01-15T14:53:56.889Z,7.02
2023-01-15T14:55:00.042Z,7.08
2023-01-15T14:56:04.414Z,7.15
2023-01-15T14:57:10.727Z,7.17
2023-01-15T14:58:31.042Z,7.13
2023-01-15T14:59:46.294Z,7.22
2023-01-15T15:00:55.709Z,7.21
2023-01-15T15:02:02.937Z,7.24
2023-01-15T15:03:18.482Z,7.16
2023-01-15T15:04:23.494Z,7.17
2023-01-15T15:05:29.163Z,7.17
2023-01-15T15:06:31.784Z,7.22
2023-01-15T15:07:41.721Z,7.18
2023-01-15T15:08:47.771Z,7.24
2023-01-15T15:10:06.868Z,7.24
2023-01-15T15:11:38.234Z,7.21
2023-01-15T15:12:45.988Z,7.23
2023-01-15T15:13:51.181Z,7.21
2023-01-15T15:15:04.629Z,7.27
2023-01-15T15:16:27.938Z,7.30
2023-01-15T15:18:03.178Z,7.27
2023-01-15T15:19:17.725Z,7.29
2023-01-15T15:20:22.853Z,7.28
2023-01-15T15:21:28.198Z,7.29
2023-01-15T15:22:33.053Z,7.29